Blues — ZGAQ9 — position and weather

sailwx.info

Track history (hours):
 
Tides and Currents Weather Stations Pressure Air Temp Water Temp Dewpoint Dewpoint Depression Visibility Wind Speed Wind Dir Waves Ship Positions

Blues

Last reported at 2017-Aug-08 19:25 UTC. Time now 2017-Aug-22 03:22 UTC.
Position N 39°34' E 002°38'.
Warning: this ship's position is 13 days out of date.

Type: Sailing vessel. MMSI: 319031700.

Date/timePositionNaut miles runAvg speedWind from/ knotsBaromVisibWave heightAir tempDewpointWater temp
2017-Aug-08 19:25N 39°34' E 002°38'0 0.0
2017-Aug-08 19:00N 39°34' E 002°38'2 3.2
2017-Aug-08 18:30N 39°32' E 002°39'4 8.3
2017-Aug-08 18:00N 39°29' E 002°41'4 8.1
2017-Aug-08 17:30N 39°25' E 002°43'5 9.1
2017-Aug-08 17:00N 39°21' E 002°47'5 9.7
2017-Aug-08 16:30N 39°19' E 002°52'5 8.4
2017-Aug-08 15:54N 39°17' E 002°58'3 7.7
2017-Aug-08 15:29N 39°15' E 003°02'2 4.5
2017-Aug-08 15:00N 39°15' E 003°05'3 6.2
2017-Aug-08 14:30N 39°15' E 003°09'4 7.8
2017-Aug-08 14:00N 39°14' E 003°14'5 8.6
2017-Aug-08 13:26N 39°14' E 003°20'4 9.0
2017-Aug-08 12:59N 39°13' E 003°25'9 8.5
2017-Aug-08 11:53N 39°12' E 003°37'26 9.3
2017-Aug-08 09:05N 39°10' E 004°10'110.5
2017-Aug-08 08:59N 39°10' E 004°12'270 9.7
2017-Aug-07 05:14N 38°32' E 009°56'4 9.2
2017-Aug-07 04:50N 38°32' E 010°00'3 8.8
2017-Aug-07 04:28N 38°31' E 010°04'7 8.7
2017-Aug-07 03:41N 38°30' E 010°13'26 9.2
2017-Aug-07 00:49N 38°27' E 010°47'4 9.5
2017-Aug-07 00:26N 38°27' E 010°51'9 9.3
2017-Aug-06 23:28N 38°26' E 011°03'54 9.3
2017-Aug-06 17:44N 38°17' E 012°10'47 4.5
2017-Aug-06 07:22N 38°13' E 013°09'3 8.7
2017-Aug-06 07:00N 38°13' E 013°13'4 8.6
2017-Aug-06 06:30N 38°14' E 013°18'4 8.3
2017-Aug-06 06:00N 38°11' E 013°22'2 4.6
2017-Aug-06 05:28N 38°09' E 013°22'0 0.0
2017-Aug-06 04:58N 38°09' E 013°22'0 0.0
2017-Aug-06 04:28N 38°09' E 013°22'0 0.0
2017-Aug-06 03:58N 38°09' E 013°22'0 0.0
2017-Aug-06 03:28N 38°09' E 013°22'0 0.0
2017-Aug-06 02:58N 38°09' E 013°22'0 0.0
2017-Aug-06 02:28N 38°09' E 013°22'0 0.0
2017-Aug-06 01:58N 38°09' E 013°22'0 0.0
2017-Aug-06 01:28N 38°09' E 013°22'0 0.0
2017-Aug-06 00:52N 38°09' E 013°22'0 0.0
2017-Aug-06 00:28N 38°09' E 013°22'0 0.0
2017-Aug-05 23:58N 38°09' E 013°22'0 0.0
2017-Aug-05 23:28N 38°09' E 013°22'0 0.0
2017-Aug-05 22:52N 38°09' E 013°22'0 0.0
2017-Aug-05 22:28N 38°09' E 013°22'0 0.0
2017-Aug-05 21:58N 38°09' E 013°22'0 0.0
2017-Aug-05 21:28N 38°09' E 013°22'0 0.0
2017-Aug-05 20:58N 38°09' E 013°22'0 0.0
2017-Aug-05 20:28N 38°09' E 013°22'0 0.0
2017-Aug-05 19:58N 38°09' E 013°22'0 0.0
2017-Aug-05 19:28N 38°09' E 013°22'0 0.0
2017-Aug-05 18:58N 38°09' E 013°22'0 0.0
2017-Aug-05 18:28N 38°09' E 013°22'0 0.0
2017-Aug-05 17:58N 38°09' E 013°22'0 0.0
2017-Aug-05 17:28N 38°09' E 013°22'0 0.0
2017-Aug-05 16:58N 38°09' E 013°22'0 0.0
2017-Aug-05 16:28N 38°09' E 013°22'0 0.0
2017-Aug-05 15:55N 38°09' E 013°22'0 0.0
2017-Aug-05 15:28N 38°09' E 013°22'0 0.0
2017-Aug-05 14:58N 38°09' E 013°22'0 0.0
2017-Aug-05 14:28N 38°09' E 013°22'0 0.0
2017-Aug-05 13:58N 38°09' E 013°22'0 0.0
2017-Aug-05 13:25N 38°09' E 013°22'0 0.0
2017-Aug-05 12:55N 38°09' E 013°22'0 0.0
2017-Aug-05 12:28N 38°09' E 013°22'0 0.0
2017-Aug-05 11:58N 38°09' E 013°22'0 0.0
2017-Aug-05 11:28N 38°09' E 013°22'0 0.0
2017-Aug-05 10:58N 38°09' E 013°22'0 0.0
2017-Aug-05 10:28N 38°09' E 013°22'0 0.0
2017-Aug-05 09:58N 38°09' E 013°22'0 0.0
2017-Aug-05 09:28N 38°09' E 013°22'0 0.0
2017-Aug-04 13:49N 38°09' E 013°22'0 0.0
2017-Aug-04 13:19N 38°09' E 013°22'0 0.0
2017-Aug-04 12:19N 38°09' E 013°22'0 0.0
2017-Aug-04 10:22N 38°09' E 013°22'0 0.0
2017-Aug-04 09:55N 38°09' E 013°22'0 0.0
2017-Aug-04 08:07N 38°09' E 013°22'0 0.6
2017-Aug-04 07:52N 38°09' E 013°22'3 7.1
2017-Aug-04 07:29N 38°09' E 013°26'7 8.6
2017-Aug-04 06:42N 38°08' E 013°34'2 9.0
2017-Aug-04 06:30N 38°07' E 013°37'4 9.0
2017-Aug-04 06:00N 38°06' E 013°42'5 9.0
2017-Aug-04 05:29N 38°05' E 013°48'4 9.1
2017-Aug-04 05:00N 38°04' E 013°53'5 9.2
2017-Aug-04 04:30N 38°03' E 013°59'3 2.3
2017-Aug-04 03:24N 38°02' E 014°02'0 0.0
2017-Aug-04 00:45N 38°02' E 014°02'0 0.0
2017-Aug-04 00:27N 38°02' E 014°02'0 0.0
2017-Aug-03 21:27N 38°02' E 014°02'0 0.0
2017-Aug-03 20:18N 38°02' E 014°02'1 1.8
2017-Aug-03 19:58N 38°03' E 014°03'4 8.9
2017-Aug-03 19:28N 38°04' E 014°08'5 9.1
2017-Aug-03 18:58N 38°05' E 014°14'5 9.4
2017-Aug-03 18:27N 38°06' E 014°20'5 9.4
2017-Aug-03 17:56N 38°07' E 014°26'11 9.2
2017-Aug-03 16:43N 38°11' E 014°39'3 9.0
2017-Aug-03 16:26N 38°11' E 014°42'5 9.0
2017-Aug-03 15:53N 38°13' E 014°48'4 9.3
2017-Aug-03 15:25N 38°14' E 014°54'4 9.1
2017-Aug-03 15:00N 38°15' E 014°58'9 9.1
2017-Aug-03 14:00N 38°16' E 015°10'4 8.2
2017-Aug-03 13:29N 38°16' E 015°15'3 5.2
2017-Aug-03 12:58N 38°13' E 015°15'0 0.0
2017-Aug-03 12:28N 38°13' E 015°15'0 0.0
2017-Aug-03 11:58N 38°13' E 015°15'0 0.0
2017-Aug-03 11:28N 38°13' E 015°15'0 0.0
2017-Aug-03 10:58N 38°13' E 015°15'0 0.0
2017-Aug-03 10:28N 38°13' E 015°15'0 0.0
2017-Aug-03 09:58N 38°13' E 015°15'0 0.0
2017-Aug-03 09:28N 38°13' E 015°15'3 6.6
2017-Aug-03 08:57N 38°17' E 015°14'4 9.0
2017-Aug-03 08:30N 38°19' E 015°10'6 8.8
2017-Aug-03 07:48N 38°23' E 015°04'  
Track history (hours):
 
Tides and Currents Weather Stations Pressure Air Temp Water Temp Dewpoint Dewpoint Depression Visibility Wind Speed Wind Dir Waves Ship Positions

Blues

Last reported at 2017-Aug-08 19:25 UTC. Time now 2017-Aug-22 03:22 UTC.
Position N 39°34' E 002°38'.
Warning: this ship's position is 13 days out of date.

Type: Sailing vessel. MMSI: 319031700.

Date/timePositionNaut miles runAvg speedWind from/ knotsBaromVisibWave heightAir tempDewpointWater temp
2017-Aug-08 19:25N 39°34' E 002°38'0 0.0
2017-Aug-08 19:00N 39°34' E 002°38'2 3.2
2017-Aug-08 18:30N 39°32' E 002°39'4 8.3
2017-Aug-08 18:00N 39°29' E 002°41'4 8.1
2017-Aug-08 17:30N 39°25' E 002°43'5 9.1
2017-Aug-08 17:00N 39°21' E 002°47'5 9.7
2017-Aug-08 16:30N 39°19' E 002°52'5 8.4
2017-Aug-08 15:54N 39°17' E 002°58'3 7.7
2017-Aug-08 15:29N 39°15' E 003°02'2 4.5
2017-Aug-08 15:00N 39°15' E 003°05'3 6.2
2017-Aug-08 14:30N 39°15' E 003°09'4 7.8
2017-Aug-08 14:00N 39°14' E 003°14'5 8.6
2017-Aug-08 13:26N 39°14' E 003°20'4 9.0
2017-Aug-08 12:59N 39°13' E 003°25'9 8.5
2017-Aug-08 11:53N 39°12' E 003°37'26 9.3
2017-Aug-08 09:05N 39°10' E 004°10'110.5
2017-Aug-08 08:59N 39°10' E 004°12'270 9.7
2017-Aug-07 05:14N 38°32' E 009°56'4 9.2
2017-Aug-07 04:50N 38°32' E 010°00'3 8.8
2017-Aug-07 04:28N 38°31' E 010°04'7 8.7
2017-Aug-07 03:41N 38°30' E 010°13'26 9.2
2017-Aug-07 00:49N 38°27' E 010°47'4 9.5
2017-Aug-07 00:26N 38°27' E 010°51'9 9.3
2017-Aug-06 23:28N 38°26' E 011°03'54 9.3
2017-Aug-06 17:44N 38°17' E 012°10'47 4.5
2017-Aug-06 07:22N 38°13' E 013°09'3 8.7
2017-Aug-06 07:00N 38°13' E 013°13'4 8.6
2017-Aug-06 06:30N 38°14' E 013°18'4 8.3
2017-Aug-06 06:00N 38°11' E 013°22'2 4.6
2017-Aug-06 05:28N 38°09' E 013°22'0 0.0
2017-Aug-06 04:58N 38°09' E 013°22'0 0.0
2017-Aug-06 04:28N 38°09' E 013°22'0 0.0
2017-Aug-06 03:58N 38°09' E 013°22'0 0.0
2017-Aug-06 03:28N 38°09' E 013°22'0 0.0
2017-Aug-06 02:58N 38°09' E 013°22'0 0.0
2017-Aug-06 02:28N 38°09' E 013°22'0 0.0
2017-Aug-06 01:58N 38°09' E 013°22'0 0.0
2017-Aug-06 01:28N 38°09' E 013°22'0 0.0
2017-Aug-06 00:52N 38°09' E 013°22'0 0.0
2017-Aug-06 00:28N 38°09' E 013°22'0 0.0
2017-Aug-05 23:58N 38°09' E 013°22'0 0.0
2017-Aug-05 23:28N 38°09' E 013°22'0 0.0
2017-Aug-05 22:52N 38°09' E 013°22'0 0.0
2017-Aug-05 22:28N 38°09' E 013°22'0 0.0
2017-Aug-05 21:58N 38°09' E 013°22'0 0.0
2017-Aug-05 21:28N 38°09' E 013°22'0 0.0
2017-Aug-05 20:58N 38°09' E 013°22'0 0.0
2017-Aug-05 20:28N 38°09' E 013°22'0 0.0
2017-Aug-05 19:58N 38°09' E 013°22'0 0.0
2017-Aug-05 19:28N 38°09' E 013°22'0 0.0
2017-Aug-05 18:58N 38°09' E 013°22'0 0.0
2017-Aug-05 18:28N 38°09' E 013°22'0 0.0
2017-Aug-05 17:58N 38°09' E 013°22'0 0.0
2017-Aug-05 17:28N 38°09' E 013°22'0 0.0
2017-Aug-05 16:58N 38°09' E 013°22'0 0.0
2017-Aug-05 16:28N 38°09' E 013°22'0 0.0
2017-Aug-05 15:55N 38°09' E 013°22'0 0.0
2017-Aug-05 15:28N 38°09' E 013°22'0 0.0
2017-Aug-05 14:58N 38°09' E 013°22'0 0.0
2017-Aug-05 14:28N 38°09' E 013°22'0 0.0
2017-Aug-05 13:58N 38°09' E 013°22'0 0.0
2017-Aug-05 13:25N 38°09' E 013°22'0 0.0
2017-Aug-05 12:55N 38°09' E 013°22'0 0.0
2017-Aug-05 12:28N 38°09' E 013°22'0 0.0
2017-Aug-05 11:58N 38°09' E 013°22'0 0.0
2017-Aug-05 11:28N 38°09' E 013°22'0 0.0
2017-Aug-05 10:58N 38°09' E 013°22'0 0.0
2017-Aug-05 10:28N 38°09' E 013°22'0 0.0
2017-Aug-05 09:58N 38°09' E 013°22'0 0.0
2017-Aug-05 09:28N 38°09' E 013°22'0 0.0
2017-Aug-04 13:49N 38°09' E 013°22'0 0.0
2017-Aug-04 13:19N 38°09' E 013°22'0 0.0
2017-Aug-04 12:19N 38°09' E 013°22'0 0.0
2017-Aug-04 10:22N 38°09' E 013°22'0 0.0
2017-Aug-04 09:55N 38°09' E 013°22'0 0.0
2017-Aug-04 08:07N 38°09' E 013°22'0 0.6
2017-Aug-04 07:52N 38°09' E 013°22'3 7.1
2017-Aug-04 07:29N 38°09' E 013°26'7 8.6
2017-Aug-04 06:42N 38°08' E 013°34'2 9.0
2017-Aug-04 06:30N 38°07' E 013°37'4 9.0
2017-Aug-04 06:00N 38°06' E 013°42'5 9.0
2017-Aug-04 05:29N 38°05' E 013°48'4 9.1
2017-Aug-04 05:00N 38°04' E 013°53'5 9.2
2017-Aug-04 04:30N 38°03' E 013°59'3 2.3
2017-Aug-04 03:24N 38°02' E 014°02'0 0.0
2017-Aug-04 00:45N 38°02' E 014°02'0 0.0
2017-Aug-04 00:27N 38°02' E 014°02'0 0.0
2017-Aug-03 21:27N 38°02' E 014°02'0 0.0
2017-Aug-03 20:18N 38°02' E 014°02'1 1.8
2017-Aug-03 19:58N 38°03' E 014°03'4 8.9
2017-Aug-03 19:28N 38°04' E 014°08'5 9.1
2017-Aug-03 18:58N 38°05' E 014°14'5 9.4
2017-Aug-03 18:27N 38°06' E 014°20'5 9.4
2017-Aug-03 17:56N 38°07' E 014°26'11 9.2
2017-Aug-03 16:43N 38°11' E 014°39'3 9.0
2017-Aug-03 16:26N 38°11' E 014°42'5 9.0
2017-Aug-03 15:53N 38°13' E 014°48'4 9.3
2017-Aug-03 15:25N 38°14' E 014°54'4 9.1
2017-Aug-03 15:00N 38°15' E 014°58'9 9.1
2017-Aug-03 14:00N 38°16' E 015°10'4 8.2
2017-Aug-03 13:29N 38°16' E 015°15'3 5.2
2017-Aug-03 12:58N 38°13' E 015°15'0 0.0
2017-Aug-03 12:28N 38°13' E 015°15'0 0.0
2017-Aug-03 11:58N 38°13' E 015°15'0 0.0
2017-Aug-03 11:28N 38°13' E 015°15'0 0.0
2017-Aug-03 10:58N 38°13' E 015°15'0 0.0
2017-Aug-03 10:28N 38°13' E 015°15'0 0.0
2017-Aug-03 09:58N 38°13' E 015°15'0 0.0
2017-Aug-03 09:28N 38°13' E 015°15'3 6.6
2017-Aug-03 08:57N 38°17' E 015°14'4 9.0
2017-Aug-03 08:30N 38°19' E 015°10'6 8.8
2017-Aug-03 07:48N 38°23' E 015°04'  

Dump ship's entire track history